Time;durP1;ratioP1;P1;durP2;ratioP2;P2;SDS_P1;SDS_P2;PMS_P1;PMS_P2;Temp;Humidity;BMP_temperature;BMP_pressure;BME280_temperature;BME280_humidity;BME280_pressure;Samples;Min_cycle;Max_cycle;Signal;HPM_P1;HPM_P2
2024/02/09 00:00:54;;;;;;;;;;;;;;;11.73;48.13;98195.50;5034390;28;20473;-76
2024/02/09 00:03:26;;;;;;;6.18;3.42;;;;;;;11.64;48.19;98186.72;5051960;28;20007;-76
2024/02/09 00:05:52;;;;;;;8.88;4.20;;;;;;;11.66;48.09;98194.44;5050561;28;20051;-77
2024/02/09 00:08:21;;;;;;;9.93;4.18;;;;;;;11.63;48.04;98190.28;5033968;28;20032;-77
2024/02/09 00:10:50;;;;;;;8.60;4.10;;;;;;;11.63;48.11;98186.84;5034632;28;20036;-78
2024/02/09 00:13:18;;;;;;;7.82;3.85;;;;;;;11.55;48.37;98177.09;5034321;28;20051;-77
2024/02/09 00:15:47;;;;;;;;;;;;;;;11.58;48.06;98180.25;5052333;28;20040;-76
2024/02/09 00:18:15;;;;;;;6.72;3.80;;;;;;;11.48;48.42;98174.19;5050625;28;19913;-78
2024/02/09 00:20:42;;;;;;;7.38;3.85;;;;;;;11.51;48.33;98176.53;5017535;28;20041;-77
2024/02/09 00:23:08;;;;;;;5.72;3.65;;;;;;;11.51;48.47;98173.09;5050383;28;20040;-77
2024/02/09 00:25:33;;;;;;;9.90;4.35;;;;;;;11.49;48.31;98169.78;5036202;28;20094;-78
2024/02/09 00:27:59;;;;;;;7.85;3.92;;;;;;;11.49;48.56;98164.56;5038146;28;20065;-77
2024/02/09 00:30:25;;;;;;;9.50;3.95;;;;;;;11.47;48.55;98163.88;5038327;28;20025;-77
2024/02/09 00:32:51;;;;;;;9.82;4.00;;;;;;;11.47;48.47;98153.44;5038255;28;20475;-78
2024/02/09 00:35:17;;;;;;;7.10;3.40;;;;;;;11.39;48.62;98152.31;5055918;28;20025;-78
2024/02/09 00:37:43;;;;;;;9.57;3.75;;;;;;;11.40;48.33;98158.34;5037305;28;20041;-77
2024/02/09 00:40:09;;;;;;;7.65;3.97;;;;;;;11.36;48.47;98159.59;5037901;28;20094;-78
2024/02/09 00:42:34;;;;;;;7.07;3.97;;;;;;;11.34;48.68;98159.75;5038124;28;20111;-77
2024/02/09 00:45:03;;;;;;;7.05;3.67;;;;;;;11.37;48.48;98171.72;5038142;28;20037;-77
2024/02/09 00:47:29;;;;;;;11.35;4.28;;;;;;;11.34;48.27;98167.56;5021860;28;20044;-77
2024/02/09 00:49:57;;;;;;;8.30;4.18;;;;;;;11.34;48.69;98172.00;5038100;28;20032;-75
2024/02/09 00:52:23;;;;;;;6.80;3.80;;;;;;;11.28;48.62;98159.47;5054406;28;20040;-77
2024/02/09 00:54:50;;;;;;;9.30;4.07;;;;;;;11.31;48.73;98169.66;5021120;28;20037;-78
2024/02/09 00:57:16;;;;;;;8.90;3.92;;;;;;;11.30;48.72;98170.59;5054689;28;20060;-78
2024/02/09 00:59:42;;;;;;;6.57;3.45;;;;;;;11.21;48.51;98165.22;5037550;28;20064;-76
2024/02/09 01:02:08;;;;;;;6.30;3.72;;;;;;;11.27;48.82;98165.63;5021236;28;20522;-77
2024/02/09 01:04:34;;;;;;;7.53;4.50;;;;;;;11.19;48.61;98161.09;5016709;28;20029;-76
2024/02/09 01:07:03;;;;;;;8.93;4.10;;;;;;;11.20;48.55;98163.56;5025966;28;20029;-78
2024/02/09 01:09:29;;;;;;;12.35;4.13;;;;;;;11.18;48.86;98168.09;5028902;28;20454;-78
2024/02/09 01:11:55;;;;;;;9.77;4.50;;;;;;;11.17;48.96;98168.25;5026784;28;20028;-77
2024/02/09 02:47:03;;;;;;;8.55;4.13;;;;;;;10.64;49.46;98151.03;5032236;28;20499;-76
2024/02/09 03:05:52;;;;;;;6.60;3.70;;;;;;;10.58;49.56;98164.59;5032575;28;20091;-76
2024/02/09 03:08:18;;;;;;;8.07;3.83;;;;;;;10.54;49.61;98161.44;5033088;28;20041;-77
2024/02/09 03:10:43;;;;;;;6.60;3.90;;;;;;;10.53;49.70;98166.78;5015167;28;20037;-77
2024/02/09 03:13:09;;;;;;;9.52;4.20;;;;;;;10.49;49.55;98177.50;5031404;28;20041;-76
2024/02/09 03:15:34;;;;;;;8.38;4.07;;;;;;;10.49;49.61;98179.28;5015202;28;20041;-77
2024/02/09 03:18:04;;;;;;;6.03;3.72;;;;;;;10.47;49.67;98179.41;5015538;28;20496;-77
2024/02/09 03:20:30;;;;;;;8.38;4.03;;;;;;;10.45;49.61;98183.94;5015842;28;20029;-77
2024/02/09 03:22:56;;;;;;;12.48;4.90;;;;;;;10.46;49.53;98187.38;5031540;28;20083;-76
2024/02/09 03:25:21;;;;;;;10.68;4.10;;;;;;;10.44;49.73;98184.88;5032561;28;20029;-76
2024/02/09 03:27:47;;;;;;;7.50;4.05;;;;;;;10.39;49.79;98174.03;5031220;28;20048;-76
2024/02/09 03:30:12;;;;;;;9.77;4.53;;;;;;;10.41;49.61;98176.50;5031460;28;20481;-76
2024/02/09 03:32:44;;;;;;;11.50;4.18;;;;;;;10.41;49.80;98176.50;5031162;28;20108;-77
2024/02/09 03:35:09;;;;;;;7.53;3.70;;;;;;;10.40;49.83;98180.88;5033055;28;20018;-77
2024/02/09 03:37:35;;;;;;;6.80;4.28;;;;;;;10.32;50.09;98188.50;5031026;28;20036;-77
2024/02/09 03:40:01;;;;;;;6.88;3.53;;;;;;;10.36;50.19;98194.31;5014795;28;20092;-76
2024/02/09 03:42:27;;;;;;;8.38;3.88;;;;;;;10.31;50.03;98203.34;4998153;28;20049;-77
2024/02/09 03:44:56;;;;;;;9.20;4.13;;;;;;;10.34;50.02;98198.84;5014840;28;20025;-76
2024/02/09 03:47:26;;;;;;;10.98;4.00;;;;;;;10.27;50.00;98185.44;5030773;28;20499;-78
2024/02/09 03:49:54;;;;;;;7.05;3.95;;;;;;;10.29;50.04;98200.03;5014782;28;20458;-78
2024/02/09 03:52:20;;;;;;;;;;;;;;;10.30;50.26;98206.06;5015541;28;20111;-75
2024/02/09 03:54:47;;;;;;;6.72;3.40;;;;;;;10.24;50.26;98209.19;5014437;28;20274;-77
2024/02/09 03:57:12;;;;;;;12.15;4.50;;;;;;;10.20;50.12;98200.78;5014260;28;20103;-77
2024/02/09 03:59:42;;;;;;;8.75;4.00;;;;;;;10.23;50.23;98207.53;5029540;28;20041;-77
2024/02/09 04:02:08;;;;;;;7.18;4.20;;;;;;;10.18;50.39;98207.91;5030652;28;20090;-77
2024/02/09 04:04:34;;;;;;;9.07;4.00;;;;;;;10.21;50.24;98223.28;5030974;28;20025;-77
2024/02/09 04:07:00;;;;;;;6.80;3.70;;;;;;;10.17;50.11;98208.88;5030653;28;20045;-77
2024/02/09 04:09:26;;;;;;;9.85;4.10;;;;;;;10.16;50.52;98209.81;4998389;28;20418;-77
2024/02/09 04:11:52;;;;;;;10.63;3.83;;;;;;;10.18;50.50;98213.13;4998142;28;20132;-78
2024/02/09 04:14:18;;;;;;;6.97;3.88;;;;;;;10.20;50.51;98213.84;5030757;28;20538;-76
2024/02/09 04:16:43;;;;;;;7.28;3.83;;;;;;;10.20;50.47;98224.28;5030759;28;20033;-77
2024/02/09 04:19:09;;;;;;;9.90;4.43;;;;;;;10.14;50.55;98212.56;5014666;28;20042;-77
2024/02/09 04:21:34;;;;;;;10.13;4.05;;;;;;;10.20;50.60;98218.22;5014046;28;20064;-78
2024/02/09 04:24:00;;;;;;;9.32;4.18;;;;;;;10.19;50.45;98212.19;5030609;28;20427;-77
2024/02/09 04:26:25;;;;;;;7.53;3.90;;;;;;;10.18;50.54;98207.91;4997699;28;20061;-76
2024/02/09 04:28:53;;;;;;;7.97;4.20;;;;;;;10.18;50.56;98214.91;5030692;28;20025;-75
2024/02/09 04:31:19;;;;;;;10.38;4.47;;;;;;;10.15;50.56;98223.81;5024356;28;20039;-76
2024/02/09 04:33:45;;;;;;;10.95;4.55;;;;;;;10.14;50.69;98219.56;5017614;28;20040;-77
2024/02/09 04:36:10;;;;;;;9.35;4.55;;;;;;;10.11;50.70;98217.22;5052236;28;20037;-76
2024/02/09 04:38:40;;;;;;;9.05;4.10;;;;;;;10.06;50.81;98214.16;5033800;28;20548;-77
2024/02/09 04:41:06;;;;;;;7.15;4.00;;;;;;;10.07;50.79;98234.03;5034479;28;20032;-78
2024/02/09 04:43:31;;;;;;;7.15;3.90;;;;;;;10.05;50.62;98222.91;5050216;28;20106;-78
2024/02/09 04:45:57;;;;;;;8.20;4.32;;;;;;;10.03;50.90;98224.84;5033598;28;20094;-80
2024/02/09 04:48:23;;;;;;;7.68;4.30;;;;;;;10.01;50.92;98224.97;5050135;28;20036;-75
2024/02/09 04:50:48;;;;;;;10.60;4.53;;;;;;;9.98;50.99;98224.38;5051529;28;20025;-74
2024/02/09 04:53:14;;;;;;;8.98;3.10;;;;;;;10.25;67.09;98227.31;5035169;28;20163;-73
2024/02/09 04:55:40;;;;;;;7.32;3.75;;;;;;;10.49;65.61;98234.09;5033799;28;20373;-74
2024/02/09 04:58:06;;;;;;;14.98;3.60;;;;;;;10.43;61.92;98224.16;5050242;28;20112;-72
2024/02/09 05:00:33;;;;;;;14.73;3.53;;;;;;;10.37;60.48;98216.84;5017066;28;20072;-73
2024/02/09 05:02:59;;;;;;;9.07;4.00;;;;;;;10.32;59.22;98220.66;5050300;28;20033;-73
2024/02/09 05:05:26;;;;;;;7.03;3.35;;;;;;;10.19;58.65;98214.78;5016796;28;20492;-72
2024/02/09 05:07:53;;;;;;;9.02;4.22;;;;;;;10.17;58.09;98221.91;5033589;28;20033;-72
2024/02/09 05:10:20;;;;;;;8.23;3.85;;;;;;;10.42;62.05;98233.78;5055079;28;20097;-75
2024/02/09 05:12:46;;;;;;;10.90;4.33;;;;;;;10.45;60.24;98235.28;5020722;28;20042;-73
2024/02/09 05:15:12;;;;;;;9.45;4.18;;;;;;;10.52;61.62;98235.63;5055381;28;20037;-76
2024/02/09 05:17:39;;;;;;;10.73;3.72;;;;;;;10.72;70.02;98239.13;5055167;28;20029;-77
2024/02/09 05:20:06;;;;;;;9.10;3.58;;;;;;;10.93;68.16;98244.34;5020932;28;20037;-75
2024/02/09 05:22:31;;;;;;;8.80;3.47;;;;;;;10.89;63.87;98248.16;5053994;28;20032;-77
2024/02/09 05:24:57;;;;;;;9.02;3.80;;;;;;;10.77;62.10;98247.41;5053436;28;20037;-77
2024/02/09 05:27:22;;;;;;;10.30;4.22;;;;;;;10.67;61.23;98244.75;5052167;28;20036;-78
2024/02/09 05:29:48;;;;;;;7.50;3.80;;;;;;;10.65;60.35;98259.72;5018363;28;20424;-77
2024/02/09 05:32:13;;;;;;;9.52;4.38;;;;;;;10.60;60.05;98262.72;5034859;28;20127;-77
2024/02/09 05:34:44;;;;;;;8.00;4.90;;;;;;;10.59;59.47;98268.06;5034761;28;20033;-77
2024/02/09 05:37:10;;;;;;;7.40;3.92;;;;;;;10.65;59.03;98267.53;5051325;28;20159;-76
2024/02/09 05:39:35;;;;;;;9.02;5.13;;;;;;;10.75;58.00;98268.41;5018528;28;20029;-76
2024/02/09 05:42:01;;;;;;;9.77;4.30;;;;;;;10.97;57.26;98272.63;5019076;28;20029;-78
2024/02/09 05:44:26;;;;;;;8.65;4.38;;;;;;;11.14;56.51;98273.00;5053006;28;20397;-77
2024/02/09 05:46:52;;;;;;;10.38;4.80;;;;;;;11.25;55.82;98267.66;5054479;28;20036;-78
2024/02/09 05:49:17;;;;;;;14.43;4.32;;;;;;;11.41;56.68;98261.94;5036789;28;20040;-77
2024/02/09 05:51:43;;;;;;;14.13;5.05;;;;;;;11.63;58.36;98268.72;5053307;28;20032;-77
2024/02/09 05:54:08;;;;;;;9.50;4.40;;;;;;;11.88;56.58;98271.78;5036699;28;20068;-77
2024/02/09 05:56:34;;;;;;;14.88;4.43;;;;;;;12.20;54.56;98275.94;5053189;28;20053;-78
2024/02/09 05:59:04;;;;;;;11.45;4.15;;;;;;;12.39;53.26;98268.06;5052326;28;20036;-78
2024/02/09 06:01:30;;;;;;;8.98;4.32;;;;;;;12.65;52.63;98288.41;5051114;28;20131;-76
2024/02/09 06:03:55;;;;;;;11.13;4.60;;;;;;;12.78;52.08;98275.84;5052019;28;20459;-79
2024/02/09 06:06:22;;;;;;;8.52;4.05;;;;;;;12.96;51.05;98290.81;5053336;28;20039;-78
2024/02/09 06:08:47;;;;;;;14.88;4.38;;;;;;;13.08;50.96;98287.06;5053081;28;20041;-77
2024/02/09 06:11:15;;;;;;;9.82;4.35;;;;;;;13.37;50.23;98302.66;5053748;28;20063;-79
2024/02/09 06:13:45;;;;;;;7.80;4.28;;;;;;;13.67;49.31;98307.78;5036138;28;20131;-78
2024/02/09 06:16:11;;;;;;;9.00;4.75;;;;;;;14.02;48.19;98300.91;5021131;28;20032;-79
2024/02/09 06:18:37;;;;;;;10.32;4.60;;;;;;;14.56;47.05;98296.41;5020390;28;20060;-78
2024/02/09 06:21:03;;;;;;;10.00;4.88;;;;;;;15.17;46.02;98302.56;5052961;28;20472;-78
2024/02/09 06:23:29;;;;;;;11.23;4.68;;;;;;;15.81;44.88;98299.53;5052077;28;20025;-77
2024/02/09 06:25:55;;;;;;;11.00;4.90;;;;;;;16.41;43.92;98295.84;5053001;28;20373;-78
2024/02/09 06:28:20;;;;;;;12.48;5.18;;;;;;;16.96;42.17;98283.75;5052730;28;20048;-78
2024/02/09 06:30:48;;;;;;;10.10;4.80;;;;;;;17.57;40.58;98295.53;5053149;28;20036;-79
2024/02/09 06:33:19;;;;;;;9.82;5.07;;;;;;;18.18;39.35;98299.16;5036651;28;20029;-79
2024/02/09 06:35:45;;;;;;;12.20;5.00;;;;;;;18.81;38.03;98294.47;5036696;28;20488;-79
2024/02/09 06:38:13;;;;;;;12.00;5.38;;;;;;;19.42;36.88;98290.03;5019387;28;20128;-77
2024/02/09 06:40:39;;;;;;;14.35;5.22;;;;;;;20.09;35.38;98282.88;5052636;28;20024;-79
2024/02/09 06:43:05;;;;;;;18.40;5.10;;;;;;;20.89;33.87;98291.47;5035979;28;20045;-79
2024/02/09 06:45:30;;;;;;;15.40;6.22;;;;;;;21.72;32.10;98282.72;5036047;28;20190;-79
2024/02/09 06:47:56;;;;;;;13.82;5.40;;;;;;;22.84;30.21;98293.66;5035930;28;20507;-77
2024/02/09 06:50:21;;;;;;;15.18;5.75;;;;;;;24.00;28.27;98290.22;5035780;28;20020;-78
2024/02/09 06:52:50;;;;;;;16.13;5.97;;;;;;;25.21;26.39;98289.19;5053552;28;20086;-79
2024/02/09 06:55:17;;;;;;;11.48;5.38;;;;;;;26.00;24.89;98286.59;5036062;28;20087;-77
2024/02/09 06:57:44;;;;;;;19.00;5.75;;;;;;;26.44;24.48;98295.19;5035873;28;20387;-79
2024/02/09 07:00:13;;;;;;;14.07;5.25;;;;;;;27.70;22.20;98282.38;5052212;28;20032;-76
2024/02/09 07:02:39;;;;;;;10.07;5.00;;;;;;;28.66;21.53;98278.94;5035778;28;20120;-77
2024/02/09 07:05:11;;;;;;;11.75;4.53;;;;;;;29.57;20.16;98281.22;5051889;28;20044;-76
2024/02/09 07:07:43;;;;;;;7.22;4.97;;;;;;;30.46;19.28;98271.03;5053279;28;20025;-77
2024/02/09 07:10:13;;;;;;;9.57;5.13;;;;;;;31.32;18.50;98271.81;5020167;28;20052;-78
2024/02/09 07:12:41;;;;;;;11.23;5.18;;;;;;;32.04;17.72;98271.16;5051908;28;20474;-78
2024/02/09 07:15:07;;;;;;;13.48;5.55;;;;;;;32.54;17.46;98260.66;5051704;28;20051;-78
2024/02/09 07:17:34;;;;;;;10.05;5.00;;;;;;;33.24;16.60;98277.03;5051559;28;20032;-77
2024/02/09 07:20:03;;;;;;;14.23;5.83;;;;;;;33.80;16.20;98273.25;5052943;28;20078;-77
2024/02/09 07:22:29;;;;;;;12.35;6.00;;;;;;;34.25;15.78;98259.66;5035181;28;20103;-78
2024/02/09 07:24:55;;;;;;;14.93;6.07;;;;;;;34.59;15.49;98250.69;5035238;28;20483;-77
2024/02/09 07:27:21;;;;;;;13.88;6.40;;;;;;;34.93;15.15;98255.22;5034984;28;20102;-78
2024/02/09 07:29:46;;;;;;;11.25;6.20;;;;;;;35.03;14.89;98259.69;5052922;28;20056;-77
2024/02/09 07:32:13;;;;;;;13.82;6.70;;;;;;;34.74;15.41;98263.25;5035009;28;20120;-79
2024/02/09 07:34:38;;;;;;;18.88;7.22;;;;;;;34.46;15.21;98254.88;5052497;28;20025;-77
2024/02/09 07:37:04;;;;;;;13.57;7.47;;;;;;;33.96;16.07;98246.06;5051116;28;20036;-77
2024/02/09 07:39:31;;;;;;;21.10;8.63;;;;;;;33.42;16.75;98251.25;5052345;28;20431;-77
2024/02/09 07:41:56;;;;;;;14.13;7.78;;;;;;;32.93;17.15;98249.25;5035098;28;20039;-77
2024/02/09 07:44:22;;;;;;;17.67;7.72;;;;;;;32.52;17.39;98250.13;5052336;28;20120;-78
2024/02/09 07:46:47;;;;;;;17.05;7.63;;;;;;;32.17;17.68;98259.88;5034596;28;20029;-78
2024/02/09 07:49:14;;;;;;;17.90;7.03;;;;;;;31.84;18.40;98245.78;5051365;28;20029;-79
2024/02/09 07:51:39;;;;;;;14.75;7.70;;;;;;;31.62;18.49;98254.13;5051419;28;20029;-78
2024/02/09 07:54:05;;;;;;;16.90;8.07;;;;;;;31.39;18.58;98248.09;5018313;28;20044;-79
2024/02/09 07:56:32;;;;;;;16.35;7.93;;;;;;;31.17;18.78;98253.69;5051025;28;20056;-81
2024/02/09 07:58:58;;;;;;;16.55;8.00;;;;;;;30.92;19.05;98248.97;5034929;28;20032;-78
2024/02/09 08:01:24;;;;;;;24.25;7.75;;;;;;;30.72;19.15;98240.78;5034251;28;20040;-80
2024/02/09 08:03:49;;;;;;;24.38;7.63;;;;;;;30.58;19.46;98249.28;5050748;28;20029;-78
2024/02/09 08:06:16;;;;;;;20.67;8.40;;;;;;;30.50;19.14;98252.47;5034460;28;20056;-78
2024/02/09 08:08:43;;;;;;;22.23;7.60;;;;;;;30.41;19.55;98254.84;5018412;28;20037;-78
2024/02/09 08:11:09;;;;;;;21.92;7.68;;;;;;;30.31;19.05;98257.44;5052699;28;20043;-77
2024/02/09 08:13:37;;;;;;;21.98;8.30;;;;;;;30.29;19.44;98248.81;5034743;28;20037;-78
2024/02/09 08:16:03;;;;;;;19.67;7.60;;;;;;;30.20;19.36;98250.34;5050783;28;20136;-79
2024/02/09 08:18:31;;;;;;;17.52;8.07;;;;;;;30.08;19.53;98245.16;5018037;28;20040;-80
2024/02/09 08:20:57;;;;;;;23.08;7.43;;;;;;;30.12;19.46;98247.03;5034726;28;20083;-80
2024/02/09 08:23:22;;;;;;;27.42;8.05;;;;;;;30.00;19.83;98250.97;5034303;28;20029;-78
2024/02/09 08:25:48;;;;;;;34.60;8.45;;;;;;;30.02;19.61;98257.75;5033751;28;20045;-77
2024/02/09 08:28:13;;;;;;;22.38;8.18;;;;;;;30.03;19.66;98248.59;5050422;28;20038;-79
2024/02/09 08:30:39;;;;;;;28.00;7.82;;;;;;;30.07;19.81;98247.00;5017339;28;20048;-78
2024/02/09 08:33:04;;;;;;;29.60;8.63;;;;;;;30.10;20.11;98243.00;5033873;28;20424;-78
2024/02/09 08:35:30;;;;;;;20.25;8.15;;;;;;;30.11;19.70;98253.50;5034393;28;20039;-78
2024/02/09 08:37:55;;;;;;;24.80;7.20;;;;;;;30.11;19.89;98248.13;5050485;28;20025;-79
2024/02/09 08:40:21;;;;;;;24.40;7.70;;;;;;;30.09;19.95;98252.13;5051103;28;20057;-78
2024/02/09 08:42:46;;;;;;;24.73;7.25;;;;;;;30.13;20.14;98248.69;5050631;28;20048;-77
2024/02/09 08:45:12;;;;;;;16.50;6.57;;;;;;;30.13;20.26;98251.38;5034134;28;20036;-79
2024/02/09 08:47:37;;;;;;;20.58;7.18;;;;;;;30.16;19.69;98252.75;5055403;28;20029;-78
2024/02/09 08:50:04;;;;;;;17.45;6.70;;;;;;;30.19;19.89;98256.78;5054918;28;20032;-78
2024/02/09 08:52:30;;;;;;;16.38;6.38;;;;;;;30.16;19.91;98246.53;5038159;28;20032;-78
2024/02/09 08:54:55;;;;;;;16.50;6.47;;;;;;;30.21;19.35;98244.72;5055974;28;20033;-79
2024/02/09 08:57:21;;;;;;;19.52;6.05;;;;;;;30.15;19.58;98243.03;5055856;28;20033;-78
2024/02/09 08:59:47;;;;;;;12.93;5.18;;;;;;;30.11;19.60;98244.63;5037670;28;20400;-78
2024/02/09 09:02:12;;;;;;;15.43;5.75;;;;;;;30.16;19.29;98252.75;5037751;28;20052;-79
2024/02/09 09:04:38;;;;;;;15.80;5.60;;;;;;;30.18;19.60;98249.81;5037741;28;20036;-79
2024/02/09 09:07:03;;;;;;;13.65;5.57;;;;;;;30.06;19.23;98241.88;5037812;28;20439;-78
2024/02/09 09:09:29;;;;;;;14.40;6.28;;;;;;;29.78;19.51;98241.88;5055548;28;20484;-78
2024/02/09 09:11:57;;;;;;;14.43;6.20;;;;;;;29.88;19.08;98243.88;5037612;28;20044;-78
2024/02/09 09:14:23;;;;;;;16.63;5.68;;;;;;;29.99;19.39;98227.84;5054541;28;20033;-77
2024/02/09 09:16:48;;;;;;;18.13;5.80;;;;;;;30.13;18.73;98234.41;5037552;28;20510;-79
2024/02/09 09:19:14;;;;;;;12.63;5.68;;;;;;;30.47;18.85;98236.84;5055519;28;20025;-79
2024/02/09 09:21:41;;;;;;;15.10;5.82;;;;;;;30.78;18.29;98224.38;5054510;28;20029;-77
2024/02/09 09:24:10;;;;;;;14.47;5.60;;;;;;;30.87;18.05;98223.88;5054230;28;20043;-78
2024/02/09 09:26:36;;;;;;;17.95;5.95;;;;;;;30.97;18.27;98234.75;5053579;28;20055;-78
2024/02/09 09:29:01;;;;;;;15.13;5.82;;;;;;;31.11;18.22;98235.88;5053686;28;20045;-78
2024/02/09 09:31:27;;;;;;;12.32;5.43;;;;;;;31.76;17.39;98238.25;5055136;28;20466;-78
2024/02/09 09:33:53;;;;;;;13.35;5.72;;;;;;;32.77;16.48;98235.00;5054051;28;20028;-77
2024/02/09 09:36:19;;;;;;;16.05;5.65;;;;;;;33.07;15.87;98225.97;5054224;28;20070;-78
2024/02/09 09:38:45;;;;;;;11.05;5.60;;;;;;;33.48;15.51;98231.19;5037724;28;20123;-78
2024/02/09 09:41:10;;;;;;;14.45;6.15;;;;;;;32.84;16.09;98219.28;5053324;28;20033;-79
2024/02/09 09:43:37;;;;;;;16.15;6.15;;;;;;;32.14;16.79;98214.53;5053155;28;20511;-79
2024/02/09 09:46:03;;;;;;;14.27;6.20;;;;;;;31.61;17.04;98213.94;5054992;28;20447;-78
2024/02/09 09:48:29;;;;;;;14.13;6.40;;;;;;;31.21;17.51;98211.63;5053951;28;20112;-79
2024/02/09 09:50:54;;;;;;;17.40;6.03;;;;;;;30.72;17.69;98220.03;5037372;28;20040;-79
2024/02/09 09:53:38;;;;;;;12.73;5.80;;;;;;;30.55;18.11;98220.19;5036567;28;20556;-78
2024/02/09 09:56:07;;;;;;;14.52;6.15;;;;;;;30.41;18.06;98214.47;5037822;28;20474;-77
2024/02/09 09:58:35;;;;;;;14.98;6.30;;;;;;;30.16;18.31;98211.53;5035731;28;20025;-78
2024/02/09 10:01:05;;;;;;;11.80;5.93;;;;;;;30.03;18.15;98213.63;5037322;28;20090;-78
2024/02/09 10:03:31;;;;;;;18.83;5.85;;;;;;;29.65;18.79;98206.50;5053601;28;20474;-78
2024/02/09 10:05:57;;;;;;;10.70;5.30;;;;;;;29.46;18.63;98203.38;5020659;28;20052;-78
2024/02/09 10:08:22;;;;;;;10.27;5.32;;;;;;;29.14;18.89;98204.06;5020768;28;20121;-78
2024/02/09 10:10:50;;;;;;;12.95;5.28;;;;;;;28.79;19.32;98195.31;5019837;28;20451;-77
2024/02/09 10:13:16;;;;;;;14.43;5.20;;;;;;;28.43;19.63;98194.81;5037273;28;20070;-79
2024/02/09 10:15:41;;;;;;;15.00;5.50;;;;;;;28.36;19.52;98199.53;5054405;28;20028;-78
2024/02/09 10:18:10;;;;;;;14.27;5.75;;;;;;;28.18;19.93;98183.69;5036720;28;20374;-76
2024/02/09 10:20:42;;;;;;;15.65;5.93;;;;;;;27.92;20.14;98180.56;5019976;28;20029;-76
2024/02/09 10:23:07;;;;;;;17.98;5.65;;;;;;;28.03;20.05;98163.63;5052948;28;20132;-75
2024/02/09 10:25:33;;;;;;;14.63;5.30;;;;;;;27.98;20.06;98164.34;5035901;28;20437;-75
2024/02/09 10:27:59;;;;;;;11.20;5.68;;;;;;;27.87;20.04;98165.22;5019397;28;20036;-76
2024/02/09 10:30:27;;;;;;;12.93;6.07;;;;;;;27.58;20.47;98161.78;5019466;28;20040;-76
2024/02/09 10:32:52;;;;;;;10.93;5.63;;;;;;;27.55;20.54;98154.22;5036080;28;20075;-76
2024/02/09 10:35:18;;;;;;;16.48;6.53;;;;;;;27.52;20.52;98144.00;5019729;28;20029;-77
2024/02/09 10:37:44;;;;;;;20.58;5.95;;;;;;;27.52;20.61;98133.28;5019421;28;20491;-76
2024/02/09 10:40:11;;;;;;;12.38;5.97;;;;;;;27.66;20.41;98145.31;5052690;28;20025;-75
2024/02/09 10:42:38;;;;;;;11.23;5.90;;;;;;;27.58;20.54;98133.09;5052714;28;20033;-77
2024/02/09 10:45:03;;;;;;;12.10;5.40;;;;;;;27.50;20.58;98119.28;5019696;28;20062;-76
2024/02/09 10:47:30;;;;;;;12.93;5.00;;;;;;;27.44;20.51;98123.75;5019583;28;20041;-76
2024/02/09 10:49:57;;;;;;;13.98;5.40;;;;;;;27.23;20.85;98112.66;5035761;28;20610;-77
2024/02/09 10:52:26;;;;;;;13.32;5.05;;;;;;;27.27;20.61;98118.31;5035389;28;20033;-77
2024/02/09 10:54:54;;;;;;;11.52;4.95;;;;;;;27.11;20.84;98106.53;5035877;28;20037;-76
2024/02/09 10:57:20;;;;;;;11.75;5.15;;;;;;;27.19;20.96;98100.78;5035817;28;20488;-77
2024/02/09 10:59:45;;;;;;;8.63;5.10;;;;;;;27.38;20.74;98095.25;5052200;28;20040;-77
2024/02/09 11:02:15;;;;;;;10.85;4.80;;;;;;;27.57;20.30;98098.50;5035504;28;20033;-77
2024/02/09 11:04:41;;;;;;;11.65;4.95;;;;;;;27.66;20.15;98091.69;5019763;28;20508;-76
2024/02/09 11:07:06;;;;;;;12.32;4.80;;;;;;;27.58;20.39;98090.22;5018722;28;20041;-76
2024/02/09 11:09:32;;;;;;;10.93;5.30;;;;;;;27.33;20.37;98085.25;5018301;28;20481;-76
2024/02/09 11:12:04;;;;;;;15.63;5.57;;;;;;;27.26;20.56;98071.13;5018794;28;20044;-76
2024/02/09 11:14:34;;;;;;;15.07;5.30;;;;;;;27.18;20.54;98072.34;5019634;28;20033;-76
2024/02/09 11:17:08;;;;;;;11.85;4.88;;;;;;;27.27;20.39;98062.06;5035750;28;20033;-76
2024/02/09 11:19:38;;;;;;;12.18;4.80;;;;;;;27.27;20.59;98062.88;5018837;28;20435;-77
2024/02/09 11:22:04;;;;;;;12.77;5.07;;;;;;;27.05;20.71;98065.44;5035014;28;20366;-76
2024/02/09 11:24:33;;;;;;;14.60;5.50;;;;;;;27.18;20.69;98060.81;5035202;28;20026;-76
2024/02/09 11:26:59;;;;;;;11.23;4.95;;;;;;;27.11;20.38;98063.66;5035194;28;20416;-75
2024/02/09 11:29:24;;;;;;;11.10;4.88;;;;;;;26.84;20.55;98053.53;5034952;28;20033;-75
2024/02/09 11:31:56;;;;;;;12.43;4.90;;;;;;;26.65;20.65;98044.06;5018419;28;20124;-77
2024/02/09 11:34:24;;;;;;;11.18;4.70;;;;;;;26.40;20.46;98047.03;5035020;28;20515;-78
2024/02/09 11:36:51;;;;;;;9.85;4.57;;;;;;;26.13;20.64;98042.19;5035093;28;20464;-78
2024/02/09 11:39:17;;;;;;;7.85;4.07;;;;;;;25.81;20.63;98031.84;5018450;28;20029;-76
2024/02/09 11:41:43;;;;;;;8.55;4.40;;;;;;;25.60;20.98;98033.22;5018084;28;20565;-76
2024/02/09 11:44:08;;;;;;;11.18;4.45;;;;;;;25.40;20.91;98044.25;5018538;28;20083;-76
2024/02/09 11:46:35;;;;;;;8.98;4.40;;;;;;;25.34;21.06;98035.28;5034436;28;20032;-76
2024/02/09 11:49:11;;;;;;;11.52;4.25;;;;;;;25.25;21.06;98031.28;5018179;28;20056;-76
2024/02/09 11:51:38;;;;;;;7.43;4.45;;;;;;;25.25;21.14;98029.44;5051567;28;20056;-77
2024/02/09 11:54:13;;;;;;;10.18;4.78;;;;;;;25.17;21.24;98032.44;5017784;28;20025;-75
2024/02/09 11:56:39;;;;;;;8.32;4.85;;;;;;;25.17;21.20;98028.94;5034284;28;20411;-76
2024/02/09 11:59:05;;;;;;;8.52;4.80;;;;;;;25.17;21.16;98029.75;5034469;28;20551;-76
2024/02/09 12:01:30;;;;;;;16.25;5.30;;;;;;;25.14;21.16;98024.06;5017666;28;20079;-76
2024/02/09 12:03:56;;;;;;;12.27;5.75;;;;;;;25.08;21.12;98012.44;5018637;28;20044;-76
2024/02/09 12:06:22;;;;;;;12.25;6.22;;;;;;;24.96;20.99;98015.09;5050840;28;20083;-76
2024/02/09 12:08:50;;;;;;;12.80;6.63;;;;;;;24.87;21.30;98009.25;5034012;28;20547;-76
2024/02/09 12:11:22;;;;;;;15.60;7.75;;;;;;;24.77;21.37;98000.19;5050755;28;20036;-77
2024/02/09 12:13:47;;;;;;;15.25;6.95;;;;;;;24.62;21.52;98001.41;5034324;28;20040;-76
2024/02/09 12:16:16;;;;;;;15.05;6.70;;;;;;;24.46;21.68;97997.44;5052499;28;20028;-77
2024/02/09 12:18:42;;;;;;;;;;;;;;;24.37;21.55;97993.47;5018681;28;20032;-77
2024/02/09 12:21:07;;;;;;;15.15;7.32;;;;;;;24.24;22.05;97994.44;5049859;28;20364;-75
2024/02/09 12:23:34;;;;;;;17.90;7.97;;;;;;;24.12;22.05;97989.03;5050503;28;20041;-77
2024/02/09 12:25:59;;;;;;;15.18;8.05;;;;;;;23.97;22.18;97997.44;5050511;28;20021;-75
2024/02/09 12:28:25;;;;;;;21.02;8.27;;;;;;;23.88;22.17;97998.75;5033778;28;20042;-75
2024/02/09 12:30:50;;;;;;;15.23;7.18;;;;;;;23.79;21.99;97997.38;5050452;28;20033;-76
2024/02/09 12:33:20;;;;;;;9.82;5.30;;;;;;;23.64;24.23;97985.22;5017279;28;20029;-78
2024/02/09 12:35:45;;;;;;;13.20;5.93;;;;;;;23.59;23.51;97992.22;5017226;28;20025;-78
2024/02/09 12:38:15;;;;;;;11.40;6.38;;;;;;;23.55;23.57;97985.72;5027613;28;20056;-78
2024/02/09 12:40:43;;;;;;;15.88;6.68;;;;;;;23.41;23.23;97980.50;5022333;28;20025;-78
2024/02/09 12:43:18;;;;;;;13.35;6.10;;;;;;;23.35;24.29;97983.22;5046303;28;20136;-78
2024/02/09 12:45:44;;;;;;;14.63;5.70;;;;;;;23.20;25.36;97980.88;5049364;28;20040;-79
2024/02/09 12:48:12;;;;;;;11.50;5.00;;;;;;;23.18;25.88;97994.41;5050011;28;20037;-79
2024/02/09 12:50:37;;;;;;;11.35;4.82;;;;;;;23.14;28.10;97984.44;5050251;28;20174;-78
2024/02/09 12:53:03;;;;;;;9.35;4.43;;;;;;;23.08;28.72;97980.78;5050042;28;20033;-79
2024/02/09 12:55:31;;;;;;;11.27;4.15;;;;;;;23.05;29.97;97976.66;5034172;28;20472;-84
2024/02/09 12:57:57;;;;;;;15.25;4.50;;;;;;;22.99;31.34;97977.50;5034131;28;20029;-79
2024/02/09 13:00:23;;;;;;;11.70;3.97;;;;;;;22.91;32.65;97975.97;5017131;28;20025;-79
2024/02/09 13:02:49;;;;;;;12.50;4.80;;;;;;;22.86;32.62;97970.44;5050831;28;20037;-77
2024/02/09 13:05:14;;;;;;;9.13;4.47;;;;;;;22.78;32.02;97957.41;5017888;28;20039;-79
2024/02/09 13:07:40;;;;;;;9.07;4.28;;;;;;;22.73;32.43;97965.22;5033958;28;20424;-78
2024/02/09 13:10:07;;;;;;;8.82;4.40;;;;;;;22.47;33.26;97960.84;5050681;28;20067;-80
2024/02/09 13:12:37;;;;;;;8.02;4.20;;;;;;;22.42;33.57;97960.69;5034327;28;20032;-79
2024/02/09 13:15:05;;;;;;;7.82;4.10;;;;;;;22.26;35.13;97956.66;5018379;28;20040;-79